Aspen, CO (81611)

3:07 PM MST on February 14, 2016 (GMT -0700)
Pitkin County Government Offices | | Change Station
CLOSE
Current Station
Personal Weather Station
Location: Aspen, CO
Elevation: 7917 ft
Nearby Weather Stations
Active Advisory: Winter Weather Advisory

Elev 7917 ft 39.19 °N, 106.82 °W | Updated 45 seconds ago

Overcast
Overcast
31.6 °F
Feels Like 32 °F
N
0.9
Wind Variable Wind from WNW
Gusts 2.0 mph

Today
High -- | Low -- °F
--% Chance of Precip.
Yesterday
High -- | Low -- °F
Precip. -- in
Pressure 30.10 in
Visibility 3.0 miles
Clouds Mostly Cloudy 2500 ft
Mostly Cloudy 3400 ft
Overcast 4600 ft
Windchill 32 °F
Dew Point 26 °F
Humidity 80%
Rainfall 0.00 in
Snow Depth Not available.
7:00 AM 5:42 PM
Waxing Crescent, 46% visible
SPECI KASE 142201Z 21003KT 3SM -SN BKN025 BKN034 OVC046 00/M04 A3010 RMK AO2 SNB2155 P0000 T00001039
Pressure 30.10 in
Visibility 3.0 miles
Clouds Mostly Cloudy 2500 ft
Mostly Cloudy 3400 ft
Overcast 4600 ft
Windchill 32 °F
Dew Point 26 °F
Humidity 80%
Rainfall 0.00 in
Snow Depth Not available.
7:00 AM 5:42 PM
Waxing Crescent, 46% visible
SPECI KASE 142201Z 21003KT 3SM -SN BKN025 BKN034 OVC046 00/M04 A3010 RMK AO2 SNB2155 P0000 T00001039

10-Day Weather Forecast

Almanac

Astronomy

Feb. 14, 2016 Rise Set
Actual Time
Civil Twilight
Nautical Twilight
Astronomical Twilight
Moon
Length of Visible Light
Length of Day
Tomorrow will be .
, % of the Moon is Illuminated

Today's Extremes

State Highs State Lows

Community

WunderPhotos

Upload Photos

1,892,890 photos uploaded!

WunderBlog® & News

Nearby

Air Quality

  Air Quality AQ Index Pollutant
Not available.

Snow Depth

Station Depth Elevation

Earthquake Activity

City Distance Mag. Time & Date
Minimum magnitude displayed is 2.5.

Coastal Water Temperatures

Place Temperature

Stations

Nearby Weather Stations

Station Location Temp. Windchill Dew Point Humidity Wind Precip. Elev Updated Type
                   

Watches & Warnings

Winter Weather Advisory
Issued: 10:42 AM MST Feb. 14, 2016 – National Weather Service

... Winter Weather Advisory remains in effect for the higher
elevations of Eagle County from 2 PM this afternoon to 5 PM MST
Monday...

* locations include the city of... Vail.

* Timing... most of the snowfall accumulation is expected this late
afternoon and overnight.

* Snow accumulation... 3 to 6 inches with locally higher amounts
near The Summit of Vail Pass.

* Winds... west to northwest 10 to 20 mph with gusts up to 40 mph
on exposed ridges.

* Impacts... travel will be difficult... especially along
Interstate 70 over Vail Pass. Be prepared for winter driving
conditions.

Precautionary/preparedness actions...

A Winter Weather Advisory means that periods of snow and/or
blowing snow will cause travel difficulties. Be prepared for
slippery roads and limited visibilities... and use caution while
driving.